sensor_id;sensor_type;location;lat;lon;timestamp;temperature;humidity
80426;DHT22;69766;51.476;5.704;2023-07-13T00:02:15;15.30;97.30
80426;DHT22;69766;51.476;5.704;2023-07-13T00:04:41;15.30;97.30
80426;DHT22;69766;51.476;5.704;2023-07-13T00:07:08;15.30;97.40
80426;DHT22;69766;51.476;5.704;2023-07-13T00:09:34;15.30;97.80
80426;DHT22;69766;51.476;5.704;2023-07-13T00:12:00;15.30;97.80
80426;DHT22;69766;51.476;5.704;2023-07-13T00:14:27;15.20;98.00
80426;DHT22;69766;51.476;5.704;2023-07-13T00:16:54;15.10;98.30
80426;DHT22;69766;51.476;5.704;2023-07-13T00:19:20;15.00;98.80
80426;DHT22;69766;51.476;5.704;2023-07-13T00:21:46;15.00;99.30
80426;DHT22;69766;51.476;5.704;2023-07-13T00:24:13;15.00;99.10
80426;DHT22;69766;51.476;5.704;2023-07-13T00:26:40;15.10;99.30
80426;DHT22;69766;51.476;5.704;2023-07-13T00:29:06;15.10;99.00
80426;DHT22;69766;51.476;5.704;2023-07-13T00:31:34;15.10;99.10
80426;DHT22;69766;51.476;5.704;2023-07-13T00:34:00;15.20;98.80
80426;DHT22;69766;51.476;5.704;2023-07-13T00:36:26;15.20;98.80
80426;DHT22;69766;51.476;5.704;2023-07-13T00:38:52;15.20;98.80
80426;DHT22;69766;51.476;5.704;2023-07-13T00:41:18;15.20;98.90
80426;DHT22;69766;51.476;5.704;2023-07-13T00:43:44;15.10;99.00
80426;DHT22;69766;51.476;5.704;2023-07-13T00:48:47;14.90;99.90
80426;DHT22;69766;51.476;5.704;2023-07-13T00:51:17;14.80;99.90
80426;DHT22;69766;51.476;5.704;2023-07-13T00:53:43;14.80;99.90
80426;DHT22;69766;51.476;5.704;2023-07-13T00:56:09;14.70;99.90
80426;DHT22;69766;51.476;5.704;2023-07-13T00:58:35;14.60;99.90
80426;DHT22;69766;51.476;5.704;2023-07-13T01:01:01;14.70;99.90
80426;DHT22;69766;51.476;5.704;2023-07-13T01:03:27;14.60;99.90
80426;DHT22;69766;51.476;5.704;2023-07-13T01:05:52;14.70;99.90
80426;DHT22;69766;51.476;5.704;2023-07-13T01:08:20;14.70;99.90
80426;DHT22;69766;51.476;5.704;2023-07-13T01:10:57;14.60;99.90
80426;DHT22;69766;51.476;5.704;2023-07-13T01:13:23;14.50;99.90
80426;DHT22;69766;51.476;5.704;2023-07-13T01:15:51;14.60;99.90
80426;DHT22;69766;51.476;5.704;2023-07-13T01:18:23;14.60;99.90
80426;DHT22;69766;51.476;5.704;2023-07-13T01:23:22;14.70;99.90
80426;DHT22;69766;51.476;5.704;2023-07-13T01:25:49;14.60;99.90
80426;DHT22;69766;51.476;5.704;2023-07-13T01:28:15;14.60;99.90
80426;DHT22;69766;51.476;5.704;2023-07-13T01:30:43;14.50;99.90
80426;DHT22;69766;51.476;5.704;2023-07-13T01:33:14;14.40;99.90
80426;DHT22;69766;51.476;5.704;2023-07-13T01:35:40;14.30;99.90
80426;DHT22;69766;51.476;5.704;2023-07-13T01:38:06;14.30;99.90
80426;DHT22;69766;51.476;5.704;2023-07-13T01:40:34;14.30;99.90
80426;DHT22;69766;51.476;5.704;2023-07-13T01:43:01;14.30;99.90
80426;DHT22;69766;51.476;5.704;2023-07-13T01:45:26;14.20;99.90
80426;DHT22;69766;51.476;5.704;2023-07-13T01:47:52;14.20;99.90
80426;DHT22;69766;51.476;5.704;2023-07-13T01:50:18;14.40;99.90
80426;DHT22;69766;51.476;5.704;2023-07-13T01:52:44;14.30;99.90
80426;DHT22;69766;51.476;5.704;2023-07-13T01:55:09;14.30;99.90
80426;DHT22;69766;51.476;5.704;2023-07-13T01:57:35;14.40;99.90
80426;DHT22;69766;51.476;5.704;2023-07-13T02:00:03;14.30;99.90
80426;DHT22;69766;51.476;5.704;2023-07-13T02:02:30;14.30;99.90
80426;DHT22;69766;51.476;5.704;2023-07-13T02:04:56;14.20;99.90
80426;DHT22;69766;51.476;5.704;2023-07-13T02:07:22;14.20;99.90
80426;DHT22;69766;51.476;5.704;2023-07-13T02:09:48;14.10;99.90
80426;DHT22;69766;51.476;5.704;2023-07-13T02:12:13;14.20;99.90
80426;DHT22;69766;51.476;5.704;2023-07-13T02:14:39;14.10;99.90
80426;DHT22;69766;51.476;5.704;2023-07-13T02:17:05;14.20;99.90
80426;DHT22;69766;51.476;5.704;2023-07-13T02:19:31;14.10;99.90
80426;DHT22;69766;51.476;5.704;2023-07-13T02:21:57;14.10;99.90
80426;DHT22;69766;51.476;5.704;2023-07-13T02:24:23;14.20;99.90
80426;DHT22;69766;51.476;5.704;2023-07-13T02:26:48;14.10;99.90
80426;DHT22;69766;51.476;5.704;2023-07-13T02:29:14;14.10;99.90
80426;DHT22;69766;51.476;5.704;2023-07-13T02:31:40;14.10;99.90
80426;DHT22;69766;51.476;5.704;2023-07-13T02:34:06;14.00;99.90
80426;DHT22;69766;51.476;5.704;2023-07-13T02:36:32;14.10;99.90
80426;DHT22;69766;51.476;5.704;2023-07-13T02:39:01;14.00;99.90
80426;DHT22;69766;51.476;5.704;2023-07-13T02:41:28;14.00;99.90
80426;DHT22;69766;51.476;5.704;2023-07-13T02:43:53;14.00;99.90
80426;DHT22;69766;51.476;5.704;2023-07-13T02:46:19;14.00;99.90
80426;DHT22;69766;51.476;5.704;2023-07-13T02:48:45;14.10;99.90
80426;DHT22;69766;51.476;5.704;2023-07-13T02:51:11;14.10;99.90
80426;DHT22;69766;51.476;5.704;2023-07-13T02:53:37;14.00;99.90
80426;DHT22;69766;51.476;5.704;2023-07-13T02:56:04;14.00;99.90
80426;DHT22;69766;51.476;5.704;2023-07-13T02:58:30;14.00;99.90
80426;DHT22;69766;51.476;5.704;2023-07-13T03:00:56;13.90;99.90
80426;DHT22;69766;51.476;5.704;2023-07-13T03:03:23;13.90;99.90
80426;DHT22;69766;51.476;5.704;2023-07-13T03:05:58;13.80;99.90
80426;DHT22;69766;51.476;5.704;2023-07-13T03:08:25;13.80;99.90
80426;DHT22;69766;51.476;5.704;2023-07-13T03:11:06;13.70;99.90
80426;DHT22;69766;51.476;5.704;2023-07-13T03:13:33;13.70;99.90
80426;DHT22;69766;51.476;5.704;2023-07-13T03:15:58;13.80;99.90
80426;DHT22;69766;51.476;5.704;2023-07-13T03:18:26;13.70;99.90
80426;DHT22;69766;51.476;5.704;2023-07-13T03:20:53;13.70;99.90
80426;DHT22;69766;51.476;5.704;2023-07-13T03:23:19;13.70;99.90
80426;DHT22;69766;51.476;5.704;2023-07-13T03:25:45;13.70;99.90
80426;DHT22;69766;51.476;5.704;2023-07-13T03:28:12;13.70;99.90
80426;DHT22;69766;51.476;5.704;2023-07-13T03:30:38;13.70;99.90
80426;DHT22;69766;51.476;5.704;2023-07-13T03:33:04;13.70;99.90
80426;DHT22;69766;51.476;5.704;2023-07-13T03:35:29;13.70;99.90
80426;DHT22;69766;51.476;5.704;2023-07-13T03:37:55;13.70;99.90
80426;DHT22;69766;51.476;5.704;2023-07-13T03:40:22;13.70;99.90
80426;DHT22;69766;51.476;5.704;2023-07-13T03:42:47;13.60;99.90
80426;DHT22;69766;51.476;5.704;2023-07-13T03:45:13;13.60;99.90
80426;DHT22;69766;51.476;5.704;2023-07-13T03:47:39;13.60;99.90
80426;DHT22;69766;51.476;5.704;2023-07-13T03:50:05;13.50;99.90
80426;DHT22;69766;51.476;5.704;2023-07-13T03:52:31;13.40;99.90
80426;DHT22;69766;51.476;5.704;2023-07-13T03:54:56;13.40;99.90
80426;DHT22;69766;51.476;5.704;2023-07-13T03:57:22;13.40;99.90
80426;DHT22;69766;51.476;5.704;2023-07-13T03:59:48;13.40;99.90
80426;DHT22;69766;51.476;5.704;2023-07-13T04:02:14;13.40;99.90
80426;DHT22;69766;51.476;5.704;2023-07-13T04:04:40;13.50;99.90
80426;DHT22;69766;51.476;5.704;2023-07-13T04:07:06;13.50;99.90
80426;DHT22;69766;51.476;5.704;2023-07-13T04:09:34;13.50;99.90
80426;DHT22;69766;51.476;5.704;2023-07-13T04:12:00;13.50;99.90
80426;DHT22;69766;51.476;5.704;2023-07-13T04:14:25;13.50;99.90
80426;DHT22;69766;51.476;5.704;2023-07-13T04:16:53;13.50;99.90
80426;DHT22;69766;51.476;5.704;2023-07-13T04:19:20;13.50;99.90
80426;DHT22;69766;51.476;5.704;2023-07-13T04:21:46;13.50;99.90
80426;DHT22;69766;51.476;5.704;2023-07-13T04:24:12;13.60;99.90
80426;DHT22;69766;51.476;5.704;2023-07-13T04:26:38;13.60;99.90
80426;DHT22;69766;51.476;5.704;2023-07-13T04:29:06;13.70;99.90
80426;DHT22;69766;51.476;5.704;2023-07-13T04:31:32;13.70;99.90
80426;DHT22;69766;51.476;5.704;2023-07-13T04:33:58;13.80;99.90
80426;DHT22;69766;51.476;5.704;2023-07-13T04:36:25;13.80;99.90
80426;DHT22;69766;51.476;5.704;2023-07-13T04:38:53;13.90;99.90
80426;DHT22;69766;51.476;5.704;2023-07-13T04:41:20;14.00;99.90
80426;DHT22;69766;51.476;5.704;2023-07-13T04:43:46;14.00;99.90
80426;DHT22;69766;51.476;5.704;2023-07-13T04:46:15;14.10;99.90
80426;DHT22;69766;51.476;5.704;2023-07-13T04:48:41;14.10;99.90
80426;DHT22;69766;51.476;5.704;2023-07-13T04:51:07;14.30;99.90
80426;DHT22;69766;51.476;5.704;2023-07-13T04:53:33;14.30;99.90
80426;DHT22;69766;51.476;5.704;2023-07-13T04:55:59;14.30;99.90
80426;DHT22;69766;51.476;5.704;2023-07-13T04:58:25;14.40;99.90
80426;DHT22;69766;51.476;5.704;2023-07-13T05:00:51;14.50;99.90
80426;DHT22;69766;51.476;5.704;2023-07-13T05:03:20;14.60;99.90
80426;DHT22;69766;51.476;5.704;2023-07-13T05:05:58;14.80;99.90
80426;DHT22;69766;51.476;5.704;2023-07-13T05:08:24;14.90;99.90
80426;DHT22;69766;51.476;5.704;2023-07-13T05:10:51;15.00;99.90
80426;DHT22;69766;51.476;5.704;2023-07-13T05:13:17;15.10;99.90
80426;DHT22;69766;51.476;5.704;2023-07-13T05:15:43;15.10;99.90
80426;DHT22;69766;51.476;5.704;2023-07-13T05:18:09;15.30;99.90
80426;DHT22;69766;51.476;5.704;2023-07-13T05:20:34;15.30;99.90
80426;DHT22;69766;51.476;5.704;2023-07-13T05:23:00;15.50;99.90
80426;DHT22;69766;51.476;5.704;2023-07-13T05:25:26;15.60;99.90
80426;DHT22;69766;51.476;5.704;2023-07-13T05:27:51;15.70;99.90
80426;DHT22;69766;51.476;5.704;2023-07-13T05:30:17;15.80;99.90
80426;DHT22;69766;51.476;5.704;2023-07-13T05:32:43;15.90;99.90
80426;DHT22;69766;51.476;5.704;2023-07-13T05:35:09;15.90;99.90
80426;DHT22;69766;51.476;5.704;2023-07-13T05:37:34;16.00;99.90
80426;DHT22;69766;51.476;5.704;2023-07-13T05:40:00;16.00;99.90
80426;DHT22;69766;51.476;5.704;2023-07-13T05:42:26;16.00;99.90
80426;DHT22;69766;51.476;5.704;2023-07-13T05:44:51;16.10;99.90
80426;DHT22;69766;51.476;5.704;2023-07-13T05:47:17;16.20;99.90
80426;DHT22;69766;51.476;5.704;2023-07-13T05:49:42;16.30;99.90
80426;DHT22;69766;51.476;5.704;2023-07-13T05:52:08;16.40;99.90
80426;DHT22;69766;51.476;5.704;2023-07-13T05:54:35;16.40;99.90
80426;DHT22;69766;51.476;5.704;2023-07-13T05:57:01;16.50;99.90
80426;DHT22;69766;51.476;5.704;2023-07-13T05:59:26;16.60;99.90
80426;DHT22;69766;51.476;5.704;2023-07-13T06:01:52;16.40;99.90
80426;DHT22;69766;51.476;5.704;2023-07-13T06:04:18;16.50;99.90
80426;DHT22;69766;51.476;5.704;2023-07-13T06:06:44;16.50;99.90
80426;DHT22;69766;51.476;5.704;2023-07-13T06:09:10;16.60;99.90
80426;DHT22;69766;51.476;5.704;2023-07-13T06:11:36;16.60;99.90
80426;DHT22;69766;51.476;5.704;2023-07-13T06:14:02;16.50;99.90
80426;DHT22;69766;51.476;5.704;2023-07-13T06:16:29;16.50;99.90
80426;DHT22;69766;51.476;5.704;2023-07-13T06:18:55;16.50;99.90
80426;DHT22;69766;51.476;5.704;2023-07-13T06:21:22;16.40;99.90
80426;DHT22;69766;51.476;5.704;2023-07-13T06:23:50;16.50;99.90
80426;DHT22;69766;51.476;5.704;2023-07-13T06:26:17;16.60;99.90
80426;DHT22;69766;51.476;5.704;2023-07-13T06:28:43;16.70;99.90
80426;DHT22;69766;51.476;5.704;2023-07-13T06:31:10;17.00;99.90
80426;DHT22;69766;51.476;5.704;2023-07-13T06:33:36;17.20;99.90
80426;DHT22;69766;51.476;5.704;2023-07-13T06:36:03;17.30;99.90
80426;DHT22;69766;51.476;5.704;2023-07-13T06:38:30;17.20;99.90
80426;DHT22;69766;51.476;5.704;2023-07-13T06:40:56;17.30;99.90
80426;DHT22;69766;51.476;5.704;2023-07-13T06:43:21;17.20;99.90
80426;DHT22;69766;51.476;5.704;2023-07-13T06:45:49;17.20;99.90
80426;DHT22;69766;51.476;5.704;2023-07-13T06:48:19;17.10;99.90
80426;DHT22;69766;51.476;5.704;2023-07-13T06:50:45;17.10;99.90
80426;DHT22;69766;51.476;5.704;2023-07-13T06:53:12;17.10;99.90
80426;DHT22;69766;51.476;5.704;2023-07-13T06:55:38;17.30;99.90
80426;DHT22;69766;51.476;5.704;2023-07-13T06:58:04;17.50;99.90
80426;DHT22;69766;51.476;5.704;2023-07-13T07:00:30;17.40;99.90
80426;DHT22;69766;51.476;5.704;2023-07-13T07:02:56;17.40;99.90
80426;DHT22;69766;51.476;5.704;2023-07-13T07:05:21;17.40;99.90
80426;DHT22;69766;51.476;5.704;2023-07-13T07:07:51;17.70;99.90
80426;DHT22;69766;51.476;5.704;2023-07-13T07:10:18;17.70;99.90
80426;DHT22;69766;51.476;5.704;2023-07-13T07:12:43;17.70;99.90
80426;DHT22;69766;51.476;5.704;2023-07-13T07:15:09;17.70;99.90
80426;DHT22;69766;51.476;5.704;2023-07-13T07:17:35;17.60;99.90
80426;DHT22;69766;51.476;5.704;2023-07-13T07:20:00;17.70;99.90
80426;DHT22;69766;51.476;5.704;2023-07-13T07:22:26;17.60;99.90
80426;DHT22;69766;51.476;5.704;2023-07-13T07:24:53;17.70;99.90
80426;DHT22;69766;51.476;5.704;2023-07-13T07:27:19;17.70;99.90
80426;DHT22;69766;51.476;5.704;2023-07-13T07:29:45;17.70;99.90
80426;DHT22;69766;51.476;5.704;2023-07-13T07:32:11;17.90;99.90
80426;DHT22;69766;51.476;5.704;2023-07-13T07:34:36;18.00;99.90
80426;DHT22;69766;51.476;5.704;2023-07-13T07:37:03;18.10;99.90
80426;DHT22;69766;51.476;5.704;2023-07-13T07:39:29;18.10;99.90
80426;DHT22;69766;51.476;5.704;2023-07-13T07:41:55;18.20;99.90
80426;DHT22;69766;51.476;5.704;2023-07-13T07:44:20;18.30;99.90
80426;DHT22;69766;51.476;5.704;2023-07-13T07:46:46;18.30;99.90
80426;DHT22;69766;51.476;5.704;2023-07-13T07:49:32;18.40;99.90
80426;DHT22;69766;51.476;5.704;2023-07-13T07:51:58;18.40;99.90
80426;DHT22;69766;51.476;5.704;2023-07-13T07:54:23;18.60;99.90
80426;DHT22;69766;51.476;5.704;2023-07-13T07:56:49;18.60;99.90
80426;DHT22;69766;51.476;5.704;2023-07-13T07:59:15;18.70;99.90
80426;DHT22;69766;51.476;5.704;2023-07-13T08:01:40;18.50;99.90
80426;DHT22;69766;51.476;5.704;2023-07-13T08:04:06;18.50;99.90
80426;DHT22;69766;51.476;5.704;2023-07-13T08:06:32;18.80;99.90
80426;DHT22;69766;51.476;5.704;2023-07-13T08:08:59;19.20;99.20
80426;DHT22;69766;51.476;5.704;2023-07-13T08:11:25;19.20;98.70
80426;DHT22;69766;51.476;5.704;2023-07-13T08:13:51;19.20;98.60
80426;DHT22;69766;51.476;5.704;2023-07-13T08:16:16;19.50;98.20
80426;DHT22;69766;51.476;5.704;2023-07-13T08:18:42;19.80;97.30
80426;DHT22;69766;51.476;5.704;2023-07-13T08:21:08;21.00;94.40
80426;DHT22;69766;51.476;5.704;2023-07-13T08:23:35;21.50;93.80
80426;DHT22;69766;51.476;5.704;2023-07-13T08:26:01;22.10;90.70
80426;DHT22;69766;51.476;5.704;2023-07-13T08:28:27;22.10;88.80
80426;DHT22;69766;51.476;5.704;2023-07-13T08:30:53;22.50;88.40
80426;DHT22;69766;51.476;5.704;2023-07-13T08:33:20;22.10;88.50
80426;DHT22;69766;51.476;5.704;2023-07-13T08:35:49;22.10;90.00
80426;DHT22;69766;51.476;5.704;2023-07-13T08:38:15;21.80;90.30
80426;DHT22;69766;51.476;5.704;2023-07-13T08:40:42;22.40;88.90
80426;DHT22;69766;51.476;5.704;2023-07-13T08:43:20;21.90;87.80
80426;DHT22;69766;51.476;5.704;2023-07-13T08:46:02;21.60;88.60
80426;DHT22;69766;51.476;5.704;2023-07-13T08:48:43;22.00;89.70
80426;DHT22;69766;51.476;5.704;2023-07-13T08:53:49;22.70;84.70
80426;DHT22;69766;51.476;5.704;2023-07-13T08:56:19;23.30;83.70
80426;DHT22;69766;51.476;5.704;2023-07-13T08:58:49;23.20;80.00
80426;DHT22;69766;51.476;5.704;2023-07-13T09:01:52;22.50;82.50
80426;DHT22;69766;51.476;5.704;2023-07-13T09:04:27;23.60;82.00
80426;DHT22;69766;51.476;5.704;2023-07-13T09:09:55;25.20;71.80
80426;DHT22;69766;51.476;5.704;2023-07-13T09:15:04;24.50;74.90
80426;DHT22;69766;51.476;5.704;2023-07-13T09:17:44;24.40;75.60
80426;DHT22;69766;51.476;5.704;2023-07-13T09:20:25;23.90;75.10
80426;DHT22;69766;51.476;5.704;2023-07-13T09:22:52;23.30;77.40
80426;DHT22;69766;51.476;5.704;2023-07-13T09:25:32;22.90;79.20
80426;DHT22;69766;51.476;5.704;2023-07-13T09:29:03;22.20;80.00
80426;DHT22;69766;51.476;5.704;2023-07-13T09:33:40;21.50;87.40
80426;DHT22;69766;51.476;5.704;2023-07-13T09:39:05;24.00;71.40
80426;DHT22;69766;51.476;5.704;2023-07-13T09:44:11;24.20;70.50
80426;DHT22;69766;51.476;5.704;2023-07-13T09:46:52;25.20;68.00
80426;DHT22;69766;51.476;5.704;2023-07-13T09:49:18;25.20;67.10
80426;DHT22;69766;51.476;5.704;2023-07-13T09:51:44;25.30;67.00
80426;DHT22;69766;51.476;5.704;2023-07-13T09:54:20;25.00;69.10
80426;DHT22;69766;51.476;5.704;2023-07-13T09:56:46;26.40;67.70
80426;DHT22;69766;51.476;5.704;2023-07-13T09:59:20;26.10;62.00
80426;DHT22;69766;51.476;5.704;2023-07-13T10:01:46;24.60;66.20
80426;DHT22;69766;51.476;5.704;2023-07-13T10:04:17;24.10;68.40
80426;DHT22;69766;51.476;5.704;2023-07-13T10:06:45;25.20;65.60
80426;DHT22;69766;51.476;5.704;2023-07-13T10:09:15;24.80;64.70
80426;DHT22;69766;51.476;5.704;2023-07-13T10:11:41;24.80;67.10
80426;DHT22;69766;51.476;5.704;2023-07-13T10:14:17;24.30;67.70
80426;DHT22;69766;51.476;5.704;2023-07-13T10:16:45;24.40;68.50
80426;DHT22;69766;51.476;5.704;2023-07-13T10:19:15;24.80;66.50
80426;DHT22;69766;51.476;5.704;2023-07-13T10:22:12;24.80;66.40
80426;DHT22;69766;51.476;5.704;2023-07-13T10:24:40;25.40;63.90
80426;DHT22;69766;51.476;5.704;2023-07-13T10:27:18;26.10;61.10
80426;DHT22;69766;51.476;5.704;2023-07-13T10:29:59;27.40;60.90
80426;DHT22;69766;51.476;5.704;2023-07-13T10:32:26;27.70;60.70
80426;DHT22;69766;51.476;5.704;2023-07-13T10:34:52;28.40;56.30
80426;DHT22;69766;51.476;5.704;2023-07-13T10:37:33;28.40;57.60
80426;DHT22;69766;51.476;5.704;2023-07-13T10:40:03;28.30;57.00
80426;DHT22;69766;51.476;5.704;2023-07-13T10:42:35;28.00;58.40
80426;DHT22;69766;51.476;5.704;2023-07-13T10:45:11;28.40;57.90
80426;DHT22;69766;51.476;5.704;2023-07-13T10:47:37;28.20;56.50
80426;DHT22;69766;51.476;5.704;2023-07-13T10:50:06;27.40;58.40
80426;DHT22;69766;51.476;5.704;2023-07-13T10:52:47;27.10;57.40
80426;DHT22;69766;51.476;5.704;2023-07-13T10:58:13;26.70;56.60
80426;DHT22;69766;51.476;5.704;2023-07-13T11:01:17;27.00;58.40
80426;DHT22;69766;51.476;5.704;2023-07-13T11:03:38;27.80;55.60
80426;DHT22;69766;51.476;5.704;2023-07-13T11:06:17;27.30;56.70
80426;DHT22;69766;51.476;5.704;2023-07-13T11:10:02;26.00;58.70
80426;DHT22;69766;51.476;5.704;2023-07-13T11:11:58;24.50;61.90
80426;DHT22;69766;51.476;5.704;2023-07-13T11:14:34;24.30;64.10
80426;DHT22;69766;51.476;5.704;2023-07-13T11:17:32;23.60;65.40
80426;DHT22;69766;51.476;5.704;2023-07-13T11:25:36;19.90;99.90
80426;DHT22;69766;51.476;5.704;2023-07-13T11:30:39;22.30;99.90
80426;DHT22;69766;51.476;5.704;2023-07-13T11:36:02;22.70;94.40
80426;DHT22;69766;51.476;5.704;2023-07-13T11:41:00;23.10;92.80
80426;DHT22;69766;51.476;5.704;2023-07-13T11:43:28;23.90;91.90
80426;DHT22;69766;51.476;5.704;2023-07-13T11:45:54;23.70;94.70
80426;DHT22;69766;51.476;5.704;2023-07-13T11:48:26;22.90;90.90
80426;DHT22;69766;51.476;5.704;2023-07-13T11:51:01;21.90;94.60
80426;DHT22;69766;51.476;5.704;2023-07-13T11:53:40;21.60;94.50
80426;DHT22;69766;51.476;5.704;2023-07-13T11:56:06;23.00;98.00
80426;DHT22;69766;51.476;5.704;2023-07-13T11:58:32;24.70;89.80
80426;DHT22;69766;51.476;5.704;2023-07-13T12:01:01;25.10;89.20
80426;DHT22;69766;51.476;5.704;2023-07-13T12:03:30;24.90;84.40
80426;DHT22;69766;51.476;5.704;2023-07-13T12:06:04;25.10;82.30
80426;DHT22;69766;51.476;5.704;2023-07-13T12:08:39;24.90;80.60
80426;DHT22;69766;51.476;5.704;2023-07-13T12:11:26;24.00;79.80
80426;DHT22;69766;51.476;5.704;2023-07-13T12:13:52;22.80;85.10
80426;DHT22;69766;51.476;5.704;2023-07-13T12:16:31;22.40;83.80
80426;DHT22;69766;51.476;5.704;2023-07-13T12:18:58;22.20;84.10
80426;DHT22;69766;51.476;5.704;2023-07-13T12:21:39;21.90;87.70
80426;DHT22;69766;51.476;5.704;2023-07-13T12:24:14;21.70;84.00
80426;DHT22;69766;51.476;5.704;2023-07-13T12:26:40;21.40;90.80
80426;DHT22;69766;51.476;5.704;2023-07-13T12:29:07;21.20;92.40
80426;DHT22;69766;51.476;5.704;2023-07-13T12:31:41;21.20;92.40
80426;DHT22;69766;51.476;5.704;2023-07-13T12:34:16;21.20;90.80
80426;DHT22;69766;51.476;5.704;2023-07-13T12:39:36;21.20;92.20
80426;DHT22;69766;51.476;5.704;2023-07-13T12:42:23;21.20;91.10
80426;DHT22;69766;51.476;5.704;2023-07-13T12:47:43;23.80;84.00
80426;DHT22;69766;51.476;5.704;2023-07-13T12:50:21;24.80;71.70
80426;DHT22;69766;51.476;5.704;2023-07-13T12:52:54;24.40;71.30
80426;DHT22;69766;51.476;5.704;2023-07-13T12:55:21;23.70;77.20
80426;DHT22;69766;51.476;5.704;2023-07-13T12:58:06;23.10;75.20
80426;DHT22;69766;51.476;5.704;2023-07-13T13:00:36;23.00;75.80
80426;DHT22;69766;51.476;5.704;2023-07-13T13:03:11;22.90;75.60
80426;DHT22;69766;51.476;5.704;2023-07-13T13:05:41;22.70;78.10
80426;DHT22;69766;51.476;5.704;2023-07-13T13:08:11;23.00;74.20
80426;DHT22;69766;51.476;5.704;2023-07-13T13:10:37;23.10;75.70
80426;DHT22;69766;51.476;5.704;2023-07-13T13:13:03;23.20;75.90
80426;DHT22;69766;51.476;5.704;2023-07-13T13:15:28;23.30;71.80
80426;DHT22;69766;51.476;5.704;2023-07-13T13:17:55;23.00;72.20
80426;DHT22;69766;51.476;5.704;2023-07-13T13:20:22;22.70;73.10
80426;DHT22;69766;51.476;5.704;2023-07-13T13:22:48;22.50;70.70
80426;DHT22;69766;51.476;5.704;2023-07-13T13:25:14;22.20;71.70
80426;DHT22;69766;51.476;5.704;2023-07-13T13:27:41;21.80;71.70
80426;DHT22;69766;51.476;5.704;2023-07-13T13:30:14;21.60;73.70
80426;DHT22;69766;51.476;5.704;2023-07-13T13:32:42;21.30;74.90
80426;DHT22;69766;51.476;5.704;2023-07-13T13:35:19;21.00;76.60
80426;DHT22;69766;51.476;5.704;2023-07-13T13:37:46;20.90;79.40
80426;DHT22;69766;51.476;5.704;2023-07-13T13:40:22;20.70;81.10
80426;DHT22;69766;51.476;5.704;2023-07-13T13:42:53;20.60;83.30
80426;DHT22;69766;51.476;5.704;2023-07-13T13:45:20;20.50;83.80
80426;DHT22;69766;51.476;5.704;2023-07-13T13:47:46;20.40;88.40
80426;DHT22;69766;51.476;5.704;2023-07-13T13:50:19;20.30;90.10
80426;DHT22;69766;51.476;5.704;2023-07-13T13:52:47;20.00;92.10
80426;DHT22;69766;51.476;5.704;2023-07-13T13:55:15;19.90;93.40
80426;DHT22;69766;51.476;5.704;2023-07-13T13:57:41;20.00;93.30
80426;DHT22;69766;51.476;5.704;2023-07-13T14:00:11;20.00;93.00
80426;DHT22;69766;51.476;5.704;2023-07-13T14:02:41;20.20;92.90
80426;DHT22;69766;51.476;5.704;2023-07-13T14:05:12;20.30;92.50
80426;DHT22;69766;51.476;5.704;2023-07-13T14:07:38;20.70;92.10
80426;DHT22;69766;51.476;5.704;2023-07-13T14:10:17;21.00;91.20
80426;DHT22;69766;51.476;5.704;2023-07-13T14:12:44;21.30;89.30
80426;DHT22;69766;51.476;5.704;2023-07-13T14:15:26;21.40;89.10
80426;DHT22;69766;51.476;5.704;2023-07-13T14:17:52;21.60;86.50
80426;DHT22;69766;51.476;5.704;2023-07-13T14:20:20;21.50;84.20
80426;DHT22;69766;51.476;5.704;2023-07-13T14:22:47;21.40;85.80
80426;DHT22;69766;51.476;5.704;2023-07-13T14:25:15;21.40;84.00
80426;DHT22;69766;51.476;5.704;2023-07-13T14:27:42;21.30;86.70
80426;DHT22;69766;51.476;5.704;2023-07-13T14:30:16;21.30;87.00
80426;DHT22;69766;51.476;5.704;2023-07-13T14:32:42;21.30;85.80
80426;DHT22;69766;51.476;5.704;2023-07-13T14:35:13;21.10;88.90
80426;DHT22;69766;51.476;5.704;2023-07-13T14:37:40;21.00;88.30
80426;DHT22;69766;51.476;5.704;2023-07-13T14:40:32;20.70;89.80
80426;DHT22;69766;51.476;5.704;2023-07-13T14:42:58;20.60;90.20
80426;DHT22;69766;51.476;5.704;2023-07-13T14:45:24;20.80;90.10
80426;DHT22;69766;51.476;5.704;2023-07-13T14:47:51;20.70;90.10
80426;DHT22;69766;51.476;5.704;2023-07-13T14:50:20;20.80;90.30
80426;DHT22;69766;51.476;5.704;2023-07-13T14:52:47;21.10;89.00
80426;DHT22;69766;51.476;5.704;2023-07-13T14:55:18;21.00;89.10
80426;DHT22;69766;51.476;5.704;2023-07-13T14:57:45;21.10;87.60
80426;DHT22;69766;51.476;5.704;2023-07-13T15:00:16;21.10;87.60
80426;DHT22;69766;51.476;5.704;2023-07-13T15:02:53;21.00;87.70
80426;DHT22;69766;51.476;5.704;2023-07-13T15:05:26;21.10;86.80
80426;DHT22;69766;51.476;5.704;2023-07-13T15:07:53;20.90;85.40
80426;DHT22;69766;51.476;5.704;2023-07-13T15:10:20;21.20;85.40
80426;DHT22;69766;51.476;5.704;2023-07-13T15:12:46;21.40;84.70
80426;DHT22;69766;51.476;5.704;2023-07-13T15:15:12;21.50;82.10
80426;DHT22;69766;51.476;5.704;2023-07-13T15:17:44;21.80;82.60
80426;DHT22;69766;51.476;5.704;2023-07-13T15:20:26;21.90;79.00
80426;DHT22;69766;51.476;5.704;2023-07-13T15:22:53;21.90;80.20
80426;DHT22;69766;51.476;5.704;2023-07-13T15:25:23;22.20;81.10
80426;DHT22;69766;51.476;5.704;2023-07-13T15:27:50;22.60;78.50
80426;DHT22;69766;51.476;5.704;2023-07-13T15:30:16;22.60;73.90
80426;DHT22;69766;51.476;5.704;2023-07-13T15:32:46;22.00;77.60
80426;DHT22;69766;51.476;5.704;2023-07-13T15:35:18;22.10;77.70
80426;DHT22;69766;51.476;5.704;2023-07-13T15:37:44;22.20;76.10
80426;DHT22;69766;51.476;5.704;2023-07-13T15:40:11;22.30;75.20
80426;DHT22;69766;51.476;5.704;2023-07-13T15:42:38;22.10;76.50
80426;DHT22;69766;51.476;5.704;2023-07-13T15:45:21;21.90;77.80
80426;DHT22;69766;51.476;5.704;2023-07-13T15:47:50;21.90;79.10
80426;DHT22;69766;51.476;5.704;2023-07-13T15:50:19;21.90;78.60
80426;DHT22;69766;51.476;5.704;2023-07-13T15:52:55;22.20;77.40
80426;DHT22;69766;51.476;5.704;2023-07-13T15:55:23;22.30;76.40
80426;DHT22;69766;51.476;5.704;2023-07-13T15:57:52;22.20;75.00
80426;DHT22;69766;51.476;5.704;2023-07-13T16:00:23;22.60;73.70
80426;DHT22;69766;51.476;5.704;2023-07-13T16:02:49;22.40;74.20
80426;DHT22;69766;51.476;5.704;2023-07-13T16:05:16;22.20;75.20
80426;DHT22;69766;51.476;5.704;2023-07-13T16:07:44;22.30;77.80
80426;DHT22;69766;51.476;5.704;2023-07-13T16:10:22;22.50;75.60
80426;DHT22;69766;51.476;5.704;2023-07-13T16:12:48;23.10;75.20
80426;DHT22;69766;51.476;5.704;2023-07-13T16:15:17;23.00;74.70
80426;DHT22;69766;51.476;5.704;2023-07-13T16:17:45;22.60;76.20
80426;DHT22;69766;51.476;5.704;2023-07-13T16:20:12;22.30;77.20
80426;DHT22;69766;51.476;5.704;2023-07-13T16:22:39;21.90;78.80
80426;DHT22;69766;51.476;5.704;2023-07-13T16:25:25;21.60;80.90